Elnora, New York
Current Conditions -  °F | °C
As of 7:51 AM on Monday 20 Oct 2014 (Local Time) from KALB Reporting Station
Broken Clouds Broken Clouds  
Wind Chill: 31°   Ceiling: 13000
Heat Index: 36°   Visibility: 10mi
Dew Point: 31°   Wind: 6mph
Humidity: 82%   Direction: 180°S
Pressure: 30.06"   Gusts: NA
Location:  42.8536°N, 73.7851°W
Report Text: KALB 201151Z 18005KT 10SM BKN130 BKN250 02/M01 A3006 RMK AO2 SLP180 T00221006 10028 21006 53002 $
Loading
Personal Weather Stations






























Interactive Weather Map New forecast layout! Learn more

10-Day Weather Forecast

Advertisements
Track Severe Weather on mobile